sensor_id;sensor_type;location;lat;lon;timestamp;P1;durP1;ratioP1;P2;durP2;ratioP2
22826;SDS011;11580;52.562;13.418;2022-12-29T00:00:18;2.10;;;2.00;;
22826;SDS011;11580;52.562;13.418;2022-12-29T00:02:45;2.00;;;1.90;;
22826;SDS011;11580;52.562;13.418;2022-12-29T00:05:13;2.13;;;1.93;;
22826;SDS011;11580;52.562;13.418;2022-12-29T00:07:40;1.97;;;1.87;;
22826;SDS011;11580;52.562;13.418;2022-12-29T00:10:07;1.90;;;1.80;;
22826;SDS011;11580;52.562;13.418;2022-12-29T00:12:35;1.90;;;1.80;;
22826;SDS011;11580;52.562;13.418;2022-12-29T00:15:20;2.10;;;1.90;;
22826;SDS011;11580;52.562;13.418;2022-12-29T00:18:03;1.90;;;1.80;;
22826;SDS011;11580;52.562;13.418;2022-12-29T00:20:33;1.60;;;1.50;;
22826;SDS011;11580;52.562;13.418;2022-12-29T00:23:19;1.80;;;1.70;;
22826;SDS011;11580;52.562;13.418;2022-12-29T00:26:08;2.30;;;2.10;;
22826;SDS011;11580;52.562;13.418;2022-12-29T00:28:57;2.10;;;1.90;;
22826;SDS011;11580;52.562;13.418;2022-12-29T00:31:43;2.70;;;1.63;;
22826;SDS011;11580;52.562;13.418;2022-12-29T00:34:27;2.70;;;2.40;;
22826;SDS011;11580;52.562;13.418;2022-12-29T00:37:12;1.73;;;1.63;;
22826;SDS011;11580;52.562;13.418;2022-12-29T00:39:40;2.20;;;2.00;;
22826;SDS011;11580;52.562;13.418;2022-12-29T00:42:25;2.40;;;2.20;;
22826;SDS011;11580;52.562;13.418;2022-12-29T00:45:09;1.70;;;1.60;;
22826;SDS011;11580;52.562;13.418;2022-12-29T00:47:38;3.43;;;2.00;;
22826;SDS011;11580;52.562;13.418;2022-12-29T00:50:05;2.43;;;1.97;;
22826;SDS011;11580;52.562;13.418;2022-12-29T00:52:32;1.60;;;1.50;;
22826;SDS011;11580;52.562;13.418;2022-12-29T00:54:59;1.73;;;1.63;;
22826;SDS011;11580;52.562;13.418;2022-12-29T00:57:27;2.33;;;1.83;;
22826;SDS011;11580;52.562;13.418;2022-12-29T00:59:54;2.97;;;1.97;;
22826;SDS011;11580;52.562;13.418;2022-12-29T01:02:21;1.67;;;1.57;;
22826;SDS011;11580;52.562;13.418;2022-12-29T01:04:49;2.37;;;2.13;;
22826;SDS011;11580;52.562;13.418;2022-12-29T01:07:17;2.20;;;2.10;;
22826;SDS011;11580;52.562;13.418;2022-12-29T01:09:44;1.90;;;1.80;;
22826;SDS011;11580;52.562;13.418;2022-12-29T01:12:28;2.00;;;1.90;;
22826;SDS011;11580;52.562;13.418;2022-12-29T01:15:10;2.57;;;1.60;;
22826;SDS011;11580;52.562;13.418;2022-12-29T01:17:40;2.20;;;2.10;;
22826;SDS011;11580;52.562;13.418;2022-12-29T01:20:10;2.23;;;2.07;;
22826;SDS011;11580;52.562;13.418;2022-12-29T01:22:38;3.33;;;1.80;;
22826;SDS011;11580;52.562;13.418;2022-12-29T01:25:07;2.23;;;2.03;;
22826;SDS011;11580;52.562;13.418;2022-12-29T01:27:37;2.93;;;2.60;;
22826;SDS011;11580;52.562;13.418;2022-12-29T01:30:04;2.20;;;2.10;;
22826;SDS011;11580;52.562;13.418;2022-12-29T01:32:33;2.00;;;1.80;;
22826;SDS011;11580;52.562;13.418;2022-12-29T01:35:01;1.90;;;1.80;;
22826;SDS011;11580;52.562;13.418;2022-12-29T01:37:30;3.37;;;2.50;;
22826;SDS011;11580;52.562;13.418;2022-12-29T01:39:57;2.43;;;2.20;;
22826;SDS011;11580;52.562;13.418;2022-12-29T01:42:24;2.07;;;1.87;;
22826;SDS011;11580;52.562;13.418;2022-12-29T01:44:52;1.80;;;1.70;;
22826;SDS011;11580;52.562;13.418;2022-12-29T01:47:26;1.30;;;1.30;;
22826;SDS011;11580;52.562;13.418;2022-12-29T01:50:01;1.80;;;1.70;;
22826;SDS011;11580;52.562;13.418;2022-12-29T01:52:35;2.37;;;2.17;;
22826;SDS011;11580;52.562;13.418;2022-12-29T01:55:08;1.53;;;1.43;;
22826;SDS011;11580;52.562;13.418;2022-12-29T01:57:39;1.70;;;1.60;;
22826;SDS011;11580;52.562;13.418;2022-12-29T02:00:13;2.47;;;1.97;;
22826;SDS011;11580;52.562;13.418;2022-12-29T02:02:41;1.70;;;1.60;;
22826;SDS011;11580;52.562;13.418;2022-12-29T02:05:14;1.70;;;1.60;;
22826;SDS011;11580;52.562;13.418;2022-12-29T02:07:51;1.77;;;1.53;;
22826;SDS011;11580;52.562;13.418;2022-12-29T02:10:19;2.00;;;1.80;;
22826;SDS011;11580;52.562;13.418;2022-12-29T02:12:49;1.73;;;1.63;;
22826;SDS011;11580;52.562;13.418;2022-12-29T02:15:18;2.07;;;1.90;;
22826;SDS011;11580;52.562;13.418;2022-12-29T02:18:02;2.33;;;1.80;;
22826;SDS011;11580;52.562;13.418;2022-12-29T02:20:56;1.50;;;1.40;;
22826;SDS011;11580;52.562;13.418;2022-12-29T02:24:10;2.00;;;1.70;;
22826;SDS011;11580;52.562;13.418;2022-12-29T02:30:34;2.03;;;1.90;;
22826;SDS011;11580;52.562;13.418;2022-12-29T02:33:13;2.17;;;1.80;;
22826;SDS011;11580;52.562;13.418;2022-12-29T02:35:55;2.00;;;1.80;;
22826;SDS011;11580;52.562;13.418;2022-12-29T02:38:38;2.43;;;2.23;;
22826;SDS011;11580;52.562;13.418;2022-12-29T02:41:20;2.00;;;1.80;;
22826;SDS011;11580;52.562;13.418;2022-12-29T02:43:59;2.70;;;1.90;;
22826;SDS011;11580;52.562;13.418;2022-12-29T02:46:36;1.70;;;1.60;;
22826;SDS011;11580;52.562;13.418;2022-12-29T02:49:11;1.80;;;1.70;;
22826;SDS011;11580;52.562;13.418;2022-12-29T02:51:46;1.80;;;1.70;;
22826;SDS011;11580;52.562;13.418;2022-12-29T02:54:22;1.90;;;1.80;;
22826;SDS011;11580;52.562;13.418;2022-12-29T02:57:12;1.60;;;1.47;;
22826;SDS011;11580;52.562;13.418;2022-12-29T02:59:54;1.93;;;1.67;;
22826;SDS011;11580;52.562;13.418;2022-12-29T03:05:54;1.80;;;1.70;;
22826;SDS011;11580;52.562;13.418;2022-12-29T03:08:48;1.83;;;1.73;;
22826;SDS011;11580;52.562;13.418;2022-12-29T03:11:27;1.80;;;1.70;;
22826;SDS011;11580;52.562;13.418;2022-12-29T03:14:23;1.60;;;1.50;;
22826;SDS011;11580;52.562;13.418;2022-12-29T03:17:18;1.67;;;1.57;;
22826;SDS011;11580;52.562;13.418;2022-12-29T03:19:55;1.53;;;1.40;;
22826;SDS011;11580;52.562;13.418;2022-12-29T03:22:30;2.00;;;1.63;;
22826;SDS011;11580;52.562;13.418;2022-12-29T03:25:10;1.77;;;1.67;;
22826;SDS011;11580;52.562;13.418;2022-12-29T03:27:49;2.00;;;1.47;;
22826;SDS011;11580;52.562;13.418;2022-12-29T03:30:21;1.50;;;1.40;;
22826;SDS011;11580;52.562;13.418;2022-12-29T03:32:50;2.20;;;1.53;;
22826;SDS011;11580;52.562;13.418;2022-12-29T03:35:26;1.60;;;1.50;;
22826;SDS011;11580;52.562;13.418;2022-12-29T03:37:58;1.43;;;1.33;;
22826;SDS011;11580;52.562;13.418;2022-12-29T03:40:36;1.43;;;1.33;;
22826;SDS011;11580;52.562;13.418;2022-12-29T03:43:09;1.60;;;1.50;;
22826;SDS011;11580;52.562;13.418;2022-12-29T03:45:39;2.13;;;2.00;;
22826;SDS011;11580;52.562;13.418;2022-12-29T03:48:06;2.10;;;1.90;;
22826;SDS011;11580;52.562;13.418;2022-12-29T03:50:38;1.90;;;1.80;;
22826;SDS011;11580;52.562;13.418;2022-12-29T03:53:05;1.63;;;1.53;;
22826;SDS011;11580;52.562;13.418;2022-12-29T03:55:33;1.93;;;1.83;;
22826;SDS011;11580;52.562;13.418;2022-12-29T03:58:00;1.40;;;1.30;;
22826;SDS011;11580;52.562;13.418;2022-12-29T04:00:43;1.63;;;1.53;;
22826;SDS011;11580;52.562;13.418;2022-12-29T04:03:11;2.50;;;1.87;;
22826;SDS011;11580;52.562;13.418;2022-12-29T04:05:39;1.60;;;1.50;;
22826;SDS011;11580;52.562;13.418;2022-12-29T04:08:07;1.90;;;1.80;;
22826;SDS011;11580;52.562;13.418;2022-12-29T04:10:34;1.60;;;1.50;;
22826;SDS011;11580;52.562;13.418;2022-12-29T04:13:04;1.43;;;1.33;;
22826;SDS011;11580;52.562;13.418;2022-12-29T04:15:31;1.80;;;1.70;;
22826;SDS011;11580;52.562;13.418;2022-12-29T04:17:58;1.73;;;1.63;;
22826;SDS011;11580;52.562;13.418;2022-12-29T04:20:27;1.63;;;1.47;;
22826;SDS011;11580;52.562;13.418;2022-12-29T04:23:13;1.97;;;1.87;;
22826;SDS011;11580;52.562;13.418;2022-12-29T04:25:40;1.80;;;1.70;;
22826;SDS011;11580;52.562;13.418;2022-12-29T04:28:13;1.90;;;1.80;;
22826;SDS011;11580;52.562;13.418;2022-12-29T04:31:01;1.73;;;1.63;;
22826;SDS011;11580;52.562;13.418;2022-12-29T04:33:35;1.93;;;1.83;;
22826;SDS011;11580;52.562;13.418;2022-12-29T04:36:02;3.47;;;1.80;;
22826;SDS011;11580;52.562;13.418;2022-12-29T04:38:32;2.53;;;2.10;;
22826;SDS011;11580;52.562;13.418;2022-12-29T04:41:02;1.93;;;1.83;;
22826;SDS011;11580;52.562;13.418;2022-12-29T04:43:31;4.90;;;1.63;;
22826;SDS011;11580;52.562;13.418;2022-12-29T04:46:21;1.80;;;1.70;;
22826;SDS011;11580;52.562;13.418;2022-12-29T04:48:56;1.50;;;1.40;;
22826;SDS011;11580;52.562;13.418;2022-12-29T04:51:38;1.50;;;1.40;;
22826;SDS011;11580;52.562;13.418;2022-12-29T04:54:09;2.07;;;1.87;;
22826;SDS011;11580;52.562;13.418;2022-12-29T04:56:37;1.90;;;1.77;;
22826;SDS011;11580;52.562;13.418;2022-12-29T04:59:04;2.03;;;1.83;;
22826;SDS011;11580;52.562;13.418;2022-12-29T05:01:31;1.40;;;1.30;;
22826;SDS011;11580;52.562;13.418;2022-12-29T05:03:59;2.17;;;1.97;;
22826;SDS011;11580;52.562;13.418;2022-12-29T05:06:26;1.80;;;1.70;;
22826;SDS011;11580;52.562;13.418;2022-12-29T05:08:54;1.70;;;1.60;;
22826;SDS011;11580;52.562;13.418;2022-12-29T05:11:22;1.63;;;1.50;;
22826;SDS011;11580;52.562;13.418;2022-12-29T05:13:50;1.60;;;1.50;;
22826;SDS011;11580;52.562;13.418;2022-12-29T05:16:17;1.80;;;1.70;;
22826;SDS011;11580;52.562;13.418;2022-12-29T05:18:44;2.20;;;1.53;;
22826;SDS011;11580;52.562;13.418;2022-12-29T05:21:13;2.90;;;1.70;;
22826;SDS011;11580;52.562;13.418;2022-12-29T05:23:41;2.27;;;1.70;;
22826;SDS011;11580;52.562;13.418;2022-12-29T05:26:09;1.60;;;1.50;;
22826;SDS011;11580;52.562;13.418;2022-12-29T05:28:56;2.60;;;1.70;;
22826;SDS011;11580;52.562;13.418;2022-12-29T05:31:23;1.50;;;1.40;;
22826;SDS011;11580;52.562;13.418;2022-12-29T05:33:51;1.93;;;1.67;;
22826;SDS011;11580;52.562;13.418;2022-12-29T05:36:19;1.80;;;1.50;;
22826;SDS011;11580;52.562;13.418;2022-12-29T05:38:51;1.90;;;1.80;;
22826;SDS011;11580;52.562;13.418;2022-12-29T05:41:19;1.97;;;1.70;;
22826;SDS011;11580;52.562;13.418;2022-12-29T05:44:00;1.87;;;1.77;;
22826;SDS011;11580;52.562;13.418;2022-12-29T05:46:43;2.23;;;1.70;;
22826;SDS011;11580;52.562;13.418;2022-12-29T05:49:32;1.90;;;1.80;;
22826;SDS011;11580;52.562;13.418;2022-12-29T05:52:07;2.37;;;2.10;;
22826;SDS011;11580;52.562;13.418;2022-12-29T05:54:34;1.73;;;1.60;;
22826;SDS011;11580;52.562;13.418;2022-12-29T05:57:07;2.00;;;1.80;;
22826;SDS011;11580;52.562;13.418;2022-12-29T05:59:36;1.60;;;1.50;;
22826;SDS011;11580;52.562;13.418;2022-12-29T06:02:04;1.90;;;1.80;;
22826;SDS011;11580;52.562;13.418;2022-12-29T06:04:31;1.90;;;1.70;;
22826;SDS011;11580;52.562;13.418;2022-12-29T06:06:59;1.90;;;1.77;;
22826;SDS011;11580;52.562;13.418;2022-12-29T06:09:37;1.47;;;1.37;;
22826;SDS011;11580;52.562;13.418;2022-12-29T06:12:05;1.80;;;1.70;;
22826;SDS011;11580;52.562;13.418;2022-12-29T06:14:33;2.10;;;2.00;;
22826;SDS011;11580;52.562;13.418;2022-12-29T06:17:03;1.80;;;1.70;;
22826;SDS011;11580;52.562;13.418;2022-12-29T06:19:32;1.57;;;1.47;;
22826;SDS011;11580;52.562;13.418;2022-12-29T06:21:59;1.60;;;1.50;;
22826;SDS011;11580;52.562;13.418;2022-12-29T06:24:31;1.60;;;1.50;;
22826;SDS011;11580;52.562;13.418;2022-12-29T06:26:58;1.87;;;1.77;;
22826;SDS011;11580;52.562;13.418;2022-12-29T06:29:26;2.43;;;1.67;;
22826;SDS011;11580;52.562;13.418;2022-12-29T06:31:55;1.97;;;1.63;;
22826;SDS011;11580;52.562;13.418;2022-12-29T06:34:25;1.50;;;1.40;;
22826;SDS011;11580;52.562;13.418;2022-12-29T06:36:52;2.17;;;1.60;;
22826;SDS011;11580;52.562;13.418;2022-12-29T06:39:19;1.83;;;1.73;;
22826;SDS011;11580;52.562;13.418;2022-12-29T06:42:00;1.77;;;1.67;;
22826;SDS011;11580;52.562;13.418;2022-12-29T06:44:46;1.60;;;1.50;;
22826;SDS011;11580;52.562;13.418;2022-12-29T06:47:14;2.10;;;1.67;;
22826;SDS011;11580;52.562;13.418;2022-12-29T06:49:42;1.73;;;1.63;;
22826;SDS011;11580;52.562;13.418;2022-12-29T06:52:10;2.97;;;1.80;;
22826;SDS011;11580;52.562;13.418;2022-12-29T06:54:37;2.30;;;2.07;;
22826;SDS011;11580;52.562;13.418;2022-12-29T06:57:04;3.70;;;2.00;;
22826;SDS011;11580;52.562;13.418;2022-12-29T06:59:32;2.10;;;1.90;;
22826;SDS011;11580;52.562;13.418;2022-12-29T07:01:59;1.93;;;1.73;;
22826;SDS011;11580;52.562;13.418;2022-12-29T07:04:27;2.20;;;2.10;;
22826;SDS011;11580;52.562;13.418;2022-12-29T07:06:55;1.90;;;1.80;;
22826;SDS011;11580;52.562;13.418;2022-12-29T07:09:22;1.63;;;1.50;;
22826;SDS011;11580;52.562;13.418;2022-12-29T07:11:50;1.90;;;1.80;;
22826;SDS011;11580;52.562;13.418;2022-12-29T07:14:17;1.67;;;1.47;;
22826;SDS011;11580;52.562;13.418;2022-12-29T07:16:44;1.40;;;1.30;;
22826;SDS011;11580;52.562;13.418;2022-12-29T07:19:11;1.70;;;1.60;;
22826;SDS011;11580;52.562;13.418;2022-12-29T07:21:38;1.80;;;1.70;;
22826;SDS011;11580;52.562;13.418;2022-12-29T07:24:07;1.90;;;1.60;;
22826;SDS011;11580;52.562;13.418;2022-12-29T07:26:35;1.87;;;1.77;;
22826;SDS011;11580;52.562;13.418;2022-12-29T07:29:02;1.90;;;1.80;;
22826;SDS011;11580;52.562;13.418;2022-12-29T07:31:30;1.90;;;1.70;;
22826;SDS011;11580;52.562;13.418;2022-12-29T07:33:57;1.70;;;1.60;;
22826;SDS011;11580;52.562;13.418;2022-12-29T07:36:24;1.37;;;1.27;;
22826;SDS011;11580;52.562;13.418;2022-12-29T07:38:52;1.70;;;1.60;;
22826;SDS011;11580;52.562;13.418;2022-12-29T07:41:20;1.67;;;1.57;;
22826;SDS011;11580;52.562;13.418;2022-12-29T07:43:47;1.57;;;1.47;;
22826;SDS011;11580;52.562;13.418;2022-12-29T07:46:32;2.13;;;1.60;;
22826;SDS011;11580;52.562;13.418;2022-12-29T07:49:00;1.67;;;1.57;;
22826;SDS011;11580;52.562;13.418;2022-12-29T07:51:27;1.33;;;1.23;;
22826;SDS011;11580;52.562;13.418;2022-12-29T07:54:04;2.47;;;1.33;;
22826;SDS011;11580;52.562;13.418;2022-12-29T07:56:32;1.60;;;1.50;;
22826;SDS011;11580;52.562;13.418;2022-12-29T07:58:59;1.93;;;1.50;;
22826;SDS011;11580;52.562;13.418;2022-12-29T08:01:27;1.50;;;1.40;;
22826;SDS011;11580;52.562;13.418;2022-12-29T08:03:54;1.50;;;1.40;;
22826;SDS011;11580;52.562;13.418;2022-12-29T08:06:21;1.40;;;1.30;;
22826;SDS011;11580;52.562;13.418;2022-12-29T08:08:48;1.77;;;1.67;;
22826;SDS011;11580;52.562;13.418;2022-12-29T08:11:15;2.60;;;1.70;;
22826;SDS011;11580;52.562;13.418;2022-12-29T08:13:44;1.90;;;1.20;;
22826;SDS011;11580;52.562;13.418;2022-12-29T08:16:11;1.37;;;1.27;;
22826;SDS011;11580;52.562;13.418;2022-12-29T08:18:38;1.30;;;1.20;;
22826;SDS011;11580;52.562;13.418;2022-12-29T08:21:05;1.33;;;1.23;;
22826;SDS011;11580;52.562;13.418;2022-12-29T08:23:33;1.70;;;1.60;;
22826;SDS011;11580;52.562;13.418;2022-12-29T08:26:01;1.70;;;1.40;;
22826;SDS011;11580;52.562;13.418;2022-12-29T08:28:31;1.70;;;1.60;;
22826;SDS011;11580;52.562;13.418;2022-12-29T08:31:00;1.80;;;1.50;;
22826;SDS011;11580;52.562;13.418;2022-12-29T08:33:29;1.67;;;1.57;;
22826;SDS011;11580;52.562;13.418;2022-12-29T08:35:58;2.13;;;1.63;;
22826;SDS011;11580;52.562;13.418;2022-12-29T08:38:26;1.60;;;1.50;;
22826;SDS011;11580;52.562;13.418;2022-12-29T08:40:54;1.70;;;1.27;;
22826;SDS011;11580;52.562;13.418;2022-12-29T08:43:22;1.83;;;1.70;;
22826;SDS011;11580;52.562;13.418;2022-12-29T08:45:49;2.10;;;1.50;;
22826;SDS011;11580;52.562;13.418;2022-12-29T08:48:18;1.53;;;1.43;;
22826;SDS011;11580;52.562;13.418;2022-12-29T08:50:47;3.20;;;1.50;;
22826;SDS011;11580;52.562;13.418;2022-12-29T08:53:15;1.90;;;1.80;;
22826;SDS011;11580;52.562;13.418;2022-12-29T08:55:44;1.70;;;1.60;;
22826;SDS011;11580;52.562;13.418;2022-12-29T08:58:13;1.60;;;1.50;;
22826;SDS011;11580;52.562;13.418;2022-12-29T09:00:42;1.57;;;1.47;;
22826;SDS011;11580;52.562;13.418;2022-12-29T09:03:10;2.43;;;2.00;;
22826;SDS011;11580;52.562;13.418;2022-12-29T09:05:39;1.67;;;1.57;;
22826;SDS011;11580;52.562;13.418;2022-12-29T09:08:06;1.60;;;1.50;;
22826;SDS011;11580;52.562;13.418;2022-12-29T09:10:33;1.90;;;1.80;;
22826;SDS011;11580;52.562;13.418;2022-12-29T09:13:00;1.30;;;1.20;;
22826;SDS011;11580;52.562;13.418;2022-12-29T09:15:27;1.63;;;1.53;;
22826;SDS011;11580;52.562;13.418;2022-12-29T09:17:55;1.57;;;1.23;;
22826;SDS011;11580;52.562;13.418;2022-12-29T09:20:22;2.00;;;1.57;;
22826;SDS011;11580;52.562;13.418;2022-12-29T09:22:50;1.70;;;1.60;;
22826;SDS011;11580;52.562;13.418;2022-12-29T09:25:17;1.63;;;1.53;;
22826;SDS011;11580;52.562;13.418;2022-12-29T09:27:45;1.70;;;1.60;;
22826;SDS011;11580;52.562;13.418;2022-12-29T09:30:13;1.50;;;1.40;;
22826;SDS011;11580;52.562;13.418;2022-12-29T09:32:40;1.60;;;1.50;;
22826;SDS011;11580;52.562;13.418;2022-12-29T09:35:08;1.67;;;1.43;;
22826;SDS011;11580;52.562;13.418;2022-12-29T09:37:35;1.50;;;1.37;;
22826;SDS011;11580;52.562;13.418;2022-12-29T09:40:05;1.70;;;1.60;;
22826;SDS011;11580;52.562;13.418;2022-12-29T09:42:42;1.50;;;1.40;;
22826;SDS011;11580;52.562;13.418;2022-12-29T09:45:23;1.60;;;1.50;;
22826;SDS011;11580;52.562;13.418;2022-12-29T09:47:59;1.70;;;1.60;;
22826;SDS011;11580;52.562;13.418;2022-12-29T09:50:27;2.20;;;1.63;;
22826;SDS011;11580;52.562;13.418;2022-12-29T09:53:01;1.63;;;1.40;;
22826;SDS011;11580;52.562;13.418;2022-12-29T09:55:39;2.27;;;1.63;;
22826;SDS011;11580;52.562;13.418;2022-12-29T09:58:14;1.40;;;1.30;;
22826;SDS011;11580;52.562;13.418;2022-12-29T10:00:49;1.43;;;1.33;;
22826;SDS011;11580;52.562;13.418;2022-12-29T10:03:24;1.57;;;1.47;;
22826;SDS011;11580;52.562;13.418;2022-12-29T10:06:00;1.40;;;1.30;;
22826;SDS011;11580;52.562;13.418;2022-12-29T10:08:37;1.57;;;1.47;;
22826;SDS011;11580;52.562;13.418;2022-12-29T10:11:15;2.10;;;1.70;;
22826;SDS011;11580;52.562;13.418;2022-12-29T10:14:06;1.40;;;1.30;;
22826;SDS011;11580;52.562;13.418;2022-12-29T10:16:54;1.80;;;1.30;;
22826;SDS011;11580;52.562;13.418;2022-12-29T10:19:41;1.40;;;1.30;;
22826;SDS011;11580;52.562;13.418;2022-12-29T10:22:38;1.70;;;1.53;;
22826;SDS011;11580;52.562;13.418;2022-12-29T10:25:22;1.40;;;1.27;;
22826;SDS011;11580;52.562;13.418;2022-12-29T10:27:53;4.67;;;1.57;;
22826;SDS011;11580;52.562;13.418;2022-12-29T10:30:25;1.83;;;1.70;;
22826;SDS011;11580;52.562;13.418;2022-12-29T10:32:53;1.43;;;1.33;;
22826;SDS011;11580;52.562;13.418;2022-12-29T10:35:25;2.17;;;1.50;;
22826;SDS011;11580;52.562;13.418;2022-12-29T10:37:58;1.90;;;1.60;;
22826;SDS011;11580;52.562;13.418;2022-12-29T10:40:36;1.93;;;1.20;;
22826;SDS011;11580;52.562;13.418;2022-12-29T10:43:16;1.50;;;1.40;;
22826;SDS011;11580;52.562;13.418;2022-12-29T10:45:51;1.40;;;1.30;;
22826;SDS011;11580;52.562;13.418;2022-12-29T10:48:22;1.93;;;1.23;;
22826;SDS011;11580;52.562;13.418;2022-12-29T10:50:55;1.57;;;1.40;;
22826;SDS011;11580;52.562;13.418;2022-12-29T10:53:26;1.53;;;1.43;;
22826;SDS011;11580;52.562;13.418;2022-12-29T10:56:04;1.47;;;1.37;;
22826;SDS011;11580;52.562;13.418;2022-12-29T10:58:48;1.63;;;1.53;;
22826;SDS011;11580;52.562;13.418;2022-12-29T11:01:17;1.40;;;1.30;;
22826;SDS011;11580;52.562;13.418;2022-12-29T11:03:50;1.30;;;1.20;;
22826;SDS011;11580;52.562;13.418;2022-12-29T11:06:28;2.50;;;1.20;;
22826;SDS011;11580;52.562;13.418;2022-12-29T11:08:57;2.30;;;1.50;;
22826;SDS011;11580;52.562;13.418;2022-12-29T11:11:32;2.40;;;1.50;;
22826;SDS011;11580;52.562;13.418;2022-12-29T11:14:09;1.53;;;1.43;;
22826;SDS011;11580;52.562;13.418;2022-12-29T11:16:40;1.33;;;1.23;;
22826;SDS011;11580;52.562;13.418;2022-12-29T11:19:19;2.10;;;1.90;;
22826;SDS011;11580;52.562;13.418;2022-12-29T11:21:48;1.70;;;1.60;;
22826;SDS011;11580;52.562;13.418;2022-12-29T11:24:19;1.77;;;1.20;;
22826;SDS011;11580;52.562;13.418;2022-12-29T11:26:50;1.30;;;1.20;;
22826;SDS011;11580;52.562;13.418;2022-12-29T11:29:24;2.10;;;1.57;;
22826;SDS011;11580;52.562;13.418;2022-12-29T11:31:55;1.80;;;1.53;;
22826;SDS011;11580;52.562;13.418;2022-12-29T11:34:25;1.60;;;1.50;;
22826;SDS011;11580;52.562;13.418;2022-12-29T11:37:00;1.80;;;1.33;;
22826;SDS011;11580;52.562;13.418;2022-12-29T11:39:33;1.30;;;1.20;;
22826;SDS011;11580;52.562;13.418;2022-12-29T11:42:06;1.40;;;1.30;;
22826;SDS011;11580;52.562;13.418;2022-12-29T11:44:44;2.53;;;1.30;;
22826;SDS011;11580;52.562;13.418;2022-12-29T11:47:20;2.77;;;1.37;;
22826;SDS011;11580;52.562;13.418;2022-12-29T11:49:57;1.30;;;1.20;;
22826;SDS011;11580;52.562;13.418;2022-12-29T11:52:29;1.30;;;1.20;;
22826;SDS011;11580;52.562;13.418;2022-12-29T11:55:01;1.00;;;1.00;;
22826;SDS011;11580;52.562;13.418;2022-12-29T11:57:32;1.20;;;1.10;;
22826;SDS011;11580;52.562;13.418;2022-12-29T12:00:03;1.00;;;0.90;;
22826;SDS011;11580;52.562;13.418;2022-12-29T12:02:45;1.10;;;1.00;;
22826;SDS011;11580;52.562;13.418;2022-12-29T12:05:22;1.07;;;1.07;;
22826;SDS011;11580;52.562;13.418;2022-12-29T12:07:59;1.20;;;1.10;;
22826;SDS011;11580;52.562;13.418;2022-12-29T12:10:36;3.17;;;1.37;;
22826;SDS011;11580;52.562;13.418;2022-12-29T12:13:20;1.23;;;1.07;;
22826;SDS011;11580;52.562;13.418;2022-12-29T12:15:59;1.27;;;1.00;;
22826;SDS011;11580;52.562;13.418;2022-12-29T12:18:37;1.00;;;0.90;;
22826;SDS011;11580;52.562;13.418;2022-12-29T12:21:13;1.13;;;1.00;;
22826;SDS011;11580;52.562;13.418;2022-12-29T12:23:57;0.83;;;0.80;;
22826;SDS011;11580;52.562;13.418;2022-12-29T12:26:45;0.87;;;0.80;;
22826;SDS011;11580;52.562;13.418;2022-12-29T12:29:27;0.60;;;0.60;;
22826;SDS011;11580;52.562;13.418;2022-12-29T12:32:06;1.07;;;0.97;;
22826;SDS011;11580;52.562;13.418;2022-12-29T12:34:42;1.10;;;0.90;;
22826;SDS011;11580;52.562;13.418;2022-12-29T12:37:15;0.80;;;0.80;;
22826;SDS011;11580;52.562;13.418;2022-12-29T12:40:37;0.90;;;0.80;;
22826;SDS011;11580;52.562;13.418;2022-12-29T12:43:39;0.73;;;0.73;;
22826;SDS011;11580;52.562;13.418;2022-12-29T12:46:14;1.63;;;0.90;;
22826;SDS011;11580;52.562;13.418;2022-12-29T12:49:14;0.87;;;0.70;;
22826;SDS011;11580;52.562;13.418;2022-12-29T12:52:21;1.23;;;1.00;;
22826;SDS011;11580;52.562;13.418;2022-12-29T12:58:15;0.80;;;0.70;;
22826;SDS011;11580;52.562;13.418;2022-12-29T13:00:57;0.97;;;0.80;;
22826;SDS011;11580;52.562;13.418;2022-12-29T13:03:45;0.73;;;0.70;;
22826;SDS011;11580;52.562;13.418;2022-12-29T13:06:33;0.80;;;0.80;;
22826;SDS011;11580;52.562;13.418;2022-12-29T13:09:19;0.80;;;0.80;;
22826;SDS011;11580;52.562;13.418;2022-12-29T13:12:11;0.80;;;0.80;;
22826;SDS011;11580;52.562;13.418;2022-12-29T13:14:54;0.70;;;0.70;;
22826;SDS011;11580;52.562;13.418;2022-12-29T13:17:39;0.90;;;0.90;;
22826;SDS011;11580;52.562;13.418;2022-12-29T13:20:18;1.10;;;0.97;;
22826;SDS011;11580;52.562;13.418;2022-12-29T13:23:01;2.23;;;0.93;;
22826;SDS011;11580;52.562;13.418;2022-12-29T13:25:39;1.63;;;1.00;;
22826;SDS011;11580;52.562;13.418;2022-12-29T13:28:16;1.20;;;1.00;;
22826;SDS011;11580;52.562;13.418;2022-12-29T13:30:56;0.80;;;0.77;;
22826;SDS011;11580;52.562;13.418;2022-12-29T13:33:33;1.53;;;1.20;;
22826;SDS011;11580;52.562;13.418;2022-12-29T13:36:13;1.73;;;1.40;;
22826;SDS011;11580;52.562;13.418;2022-12-29T13:38:54;1.30;;;1.10;;
22826;SDS011;11580;52.562;13.418;2022-12-29T13:41:30;1.30;;;1.20;;
22826;SDS011;11580;52.562;13.418;2022-12-29T13:44:05;1.30;;;1.20;;
22826;SDS011;11580;52.562;13.418;2022-12-29T13:46:38;1.20;;;1.10;;
22826;SDS011;11580;52.562;13.418;2022-12-29T13:49:11;1.47;;;1.37;;
22826;SDS011;11580;52.562;13.418;2022-12-29T13:51:48;1.17;;;1.07;;
22826;SDS011;11580;52.562;13.418;2022-12-29T13:54:24;0.93;;;0.93;;
22826;SDS011;11580;52.562;13.418;2022-12-29T13:57:06;1.20;;;1.10;;
22826;SDS011;11580;52.562;13.418;2022-12-29T13:59:48;1.40;;;1.30;;
22826;SDS011;11580;52.562;13.418;2022-12-29T14:02:24;1.23;;;1.13;;
22826;SDS011;11580;52.562;13.418;2022-12-29T14:05:05;1.13;;;1.03;;
22826;SDS011;11580;52.562;13.418;2022-12-29T14:07:58;1.40;;;1.30;;
22826;SDS011;11580;52.562;13.418;2022-12-29T14:10:30;1.30;;;1.20;;
22826;SDS011;11580;52.562;13.418;2022-12-29T14:13:03;1.33;;;1.10;;
22826;SDS011;11580;52.562;13.418;2022-12-29T14:15:37;1.93;;;1.40;;
22826;SDS011;11580;52.562;13.418;2022-12-29T14:18:11;2.00;;;1.50;;
22826;SDS011;11580;52.562;13.418;2022-12-29T14:20:50;1.37;;;1.27;;
22826;SDS011;11580;52.562;13.418;2022-12-29T14:23:29;1.50;;;1.40;;
22826;SDS011;11580;52.562;13.418;2022-12-29T14:29:15;1.90;;;1.70;;
22826;SDS011;11580;52.562;13.418;2022-12-29T14:38:14;2.40;;;1.43;;
22826;SDS011;11580;52.562;13.418;2022-12-29T14:40:48;1.50;;;1.30;;
22826;SDS011;11580;52.562;13.418;2022-12-29T14:43:22;1.43;;;1.33;;
22826;SDS011;11580;52.562;13.418;2022-12-29T14:45:57;1.30;;;1.20;;
22826;SDS011;11580;52.562;13.418;2022-12-29T14:48:36;2.47;;;1.73;;
22826;SDS011;11580;52.562;13.418;2022-12-29T14:51:18;1.67;;;1.57;;
22826;SDS011;11580;52.562;13.418;2022-12-29T14:53:55;1.70;;;1.60;;
22826;SDS011;11580;52.562;13.418;2022-12-29T14:56:24;1.40;;;1.30;;
22826;SDS011;11580;52.562;13.418;2022-12-29T14:58:58;2.33;;;2.13;;
22826;SDS011;11580;52.562;13.418;2022-12-29T15:01:37;1.80;;;1.70;;
22826;SDS011;11580;52.562;13.418;2022-12-29T15:04:15;2.10;;;1.80;;
22826;SDS011;11580;52.562;13.418;2022-12-29T15:06:46;2.10;;;1.70;;
22826;SDS011;11580;52.562;13.418;2022-12-29T15:09:23;2.53;;;2.33;;
22826;SDS011;11580;52.562;13.418;2022-12-29T15:11:59;2.13;;;1.90;;
22826;SDS011;11580;52.562;13.418;2022-12-29T15:14:35;3.10;;;2.80;;
22826;SDS011;11580;52.562;13.418;2022-12-29T15:17:09;2.40;;;2.00;;
22826;SDS011;11580;52.562;13.418;2022-12-29T15:19:49;2.00;;;1.67;;
22826;SDS011;11580;52.562;13.418;2022-12-29T15:22:16;1.70;;;1.60;;
22826;SDS011;11580;52.562;13.418;2022-12-29T15:24:44;1.13;;;1.03;;
22826;SDS011;11580;52.562;13.418;2022-12-29T15:27:12;1.07;;;1.00;;
22826;SDS011;11580;52.562;13.418;2022-12-29T15:29:46;1.03;;;1.00;;
22826;SDS011;11580;52.562;13.418;2022-12-29T15:32:21;1.30;;;1.20;;